sensor_id;sensor_type;location;lat;lon;timestamp;temperature;humidity
28010;DHT22;15334;49.494;8.410;2022-07-10T00:01:13;17.80;99.90
28010;DHT22;15334;49.494;8.410;2022-07-10T00:03:41;17.70;99.90
28010;DHT22;15334;49.494;8.410;2022-07-10T00:06:11;17.70;99.90
28010;DHT22;15334;49.494;8.410;2022-07-10T00:08:39;17.70;99.90
28010;DHT22;15334;49.494;8.410;2022-07-10T00:11:09;17.70;99.90
28010;DHT22;15334;49.494;8.410;2022-07-10T00:13:38;17.70;99.90
28010;DHT22;15334;49.494;8.410;2022-07-10T00:16:07;17.60;99.90
28010;DHT22;15334;49.494;8.410;2022-07-10T00:18:35;17.60;99.90
28010;DHT22;15334;49.494;8.410;2022-07-10T00:21:04;17.60;99.90
28010;DHT22;15334;49.494;8.410;2022-07-10T00:23:33;17.50;99.90
28010;DHT22;15334;49.494;8.410;2022-07-10T00:26:01;17.50;99.90
28010;DHT22;15334;49.494;8.410;2022-07-10T00:28:29;17.50;99.90
28010;DHT22;15334;49.494;8.410;2022-07-10T00:30:58;17.50;99.90
28010;DHT22;15334;49.494;8.410;2022-07-10T00:33:29;17.50;99.90
28010;DHT22;15334;49.494;8.410;2022-07-10T00:36:01;17.40;99.90
28010;DHT22;15334;49.494;8.410;2022-07-10T00:38:32;17.30;99.90
28010;DHT22;15334;49.494;8.410;2022-07-10T00:41:00;17.30;99.90
28010;DHT22;15334;49.494;8.410;2022-07-10T00:43:28;17.30;99.90
28010;DHT22;15334;49.494;8.410;2022-07-10T00:45:57;17.20;99.90
28010;DHT22;15334;49.494;8.410;2022-07-10T00:48:26;17.20;99.90
28010;DHT22;15334;49.494;8.410;2022-07-10T00:50:54;17.10;99.90
28010;DHT22;15334;49.494;8.410;2022-07-10T00:53:22;17.10;99.90
28010;DHT22;15334;49.494;8.410;2022-07-10T00:55:50;17.20;99.90
28010;DHT22;15334;49.494;8.410;2022-07-10T00:58:18;17.10;99.90
28010;DHT22;15334;49.494;8.410;2022-07-10T01:00:48;17.10;99.90
28010;DHT22;15334;49.494;8.410;2022-07-10T01:03:18;17.00;99.90
28010;DHT22;15334;49.494;8.410;2022-07-10T01:05:45;17.00;99.90
28010;DHT22;15334;49.494;8.410;2022-07-10T01:08:13;16.90;99.90
28010;DHT22;15334;49.494;8.410;2022-07-10T01:10:41;17.00;99.90
28010;DHT22;15334;49.494;8.410;2022-07-10T01:13:10;17.00;99.90
28010;DHT22;15334;49.494;8.410;2022-07-10T01:15:38;17.00;99.90
28010;DHT22;15334;49.494;8.410;2022-07-10T01:18:06;17.00;99.90
28010;DHT22;15334;49.494;8.410;2022-07-10T01:20:36;17.00;99.90
28010;DHT22;15334;49.494;8.410;2022-07-10T01:23:08;17.00;99.90
28010;DHT22;15334;49.494;8.410;2022-07-10T01:25:36;17.00;99.90
28010;DHT22;15334;49.494;8.410;2022-07-10T01:28:04;17.00;99.90
28010;DHT22;15334;49.494;8.410;2022-07-10T01:30:33;17.00;99.90
28010;DHT22;15334;49.494;8.410;2022-07-10T01:33:01;17.00;99.90
28010;DHT22;15334;49.494;8.410;2022-07-10T01:35:31;17.00;99.90
28010;DHT22;15334;49.494;8.410;2022-07-10T01:37:59;17.00;99.90
28010;DHT22;15334;49.494;8.410;2022-07-10T01:40:29;17.00;99.90
28010;DHT22;15334;49.494;8.410;2022-07-10T01:42:57;17.00;99.90
28010;DHT22;15334;49.494;8.410;2022-07-10T01:45:25;17.00;99.90
28010;DHT22;15334;49.494;8.410;2022-07-10T01:47:53;17.00;99.90
28010;DHT22;15334;49.494;8.410;2022-07-10T01:50:21;17.00;99.90
28010;DHT22;15334;49.494;8.410;2022-07-10T01:52:49;17.10;99.90
28010;DHT22;15334;49.494;8.410;2022-07-10T01:55:18;17.00;99.90
28010;DHT22;15334;49.494;8.410;2022-07-10T01:57:50;17.00;99.90
28010;DHT22;15334;49.494;8.410;2022-07-10T02:00:22;17.00;99.90
28010;DHT22;15334;49.494;8.410;2022-07-10T02:02:50;16.90;99.90
28010;DHT22;15334;49.494;8.410;2022-07-10T02:05:35;16.90;99.90
28010;DHT22;15334;49.494;8.410;2022-07-10T02:08:04;16.90;99.90
28010;DHT22;15334;49.494;8.410;2022-07-10T02:10:32;16.90;99.90
28010;DHT22;15334;49.494;8.410;2022-07-10T02:13:02;16.80;99.90
28010;DHT22;15334;49.494;8.410;2022-07-10T02:15:30;16.80;99.90
28010;DHT22;15334;49.494;8.410;2022-07-10T02:17:58;16.80;99.90
28010;DHT22;15334;49.494;8.410;2022-07-10T02:20:26;16.70;99.90
28010;DHT22;15334;49.494;8.410;2022-07-10T02:22:54;16.70;99.90
28010;DHT22;15334;49.494;8.410;2022-07-10T02:25:22;16.60;99.90
28010;DHT22;15334;49.494;8.410;2022-07-10T02:27:53;16.60;99.90
28010;DHT22;15334;49.494;8.410;2022-07-10T02:30:23;16.50;99.90
28010;DHT22;15334;49.494;8.410;2022-07-10T02:32:51;16.50;99.90
28010;DHT22;15334;49.494;8.410;2022-07-10T02:35:19;16.50;99.90
28010;DHT22;15334;49.494;8.410;2022-07-10T02:37:50;16.40;99.90
28010;DHT22;15334;49.494;8.410;2022-07-10T02:40:18;16.50;99.90
28010;DHT22;15334;49.494;8.410;2022-07-10T02:42:46;16.50;99.90
28010;DHT22;15334;49.494;8.410;2022-07-10T02:45:14;16.50;99.90
28010;DHT22;15334;49.494;8.410;2022-07-10T02:47:44;16.50;99.90
28010;DHT22;15334;49.494;8.410;2022-07-10T02:50:12;16.50;99.90
28010;DHT22;15334;49.494;8.410;2022-07-10T02:52:40;16.50;99.90
28010;DHT22;15334;49.494;8.410;2022-07-10T02:55:08;16.60;99.90
28010;DHT22;15334;49.494;8.410;2022-07-10T02:57:36;16.60;99.90
28010;DHT22;15334;49.494;8.410;2022-07-10T03:00:09;16.40;99.90
28010;DHT22;15334;49.494;8.410;2022-07-10T03:02:38;16.40;99.90
28010;DHT22;15334;49.494;8.410;2022-07-10T03:05:08;16.50;99.90
28010;DHT22;15334;49.494;8.410;2022-07-10T03:07:36;16.50;99.90
28010;DHT22;15334;49.494;8.410;2022-07-10T03:10:05;16.40;99.90
28010;DHT22;15334;49.494;8.410;2022-07-10T03:12:33;16.50;99.90
28010;DHT22;15334;49.494;8.410;2022-07-10T03:15:01;16.50;99.90
28010;DHT22;15334;49.494;8.410;2022-07-10T03:17:29;16.60;99.90
28010;DHT22;15334;49.494;8.410;2022-07-10T03:19:57;16.60;99.90
28010;DHT22;15334;49.494;8.410;2022-07-10T03:22:27;16.50;99.90
28010;DHT22;15334;49.494;8.410;2022-07-10T03:24:55;16.50;99.90
28010;DHT22;15334;49.494;8.410;2022-07-10T03:27:25;16.60;99.90
28010;DHT22;15334;49.494;8.410;2022-07-10T03:29:53;16.60;99.90
28010;DHT22;15334;49.494;8.410;2022-07-10T03:32:21;16.60;99.90
28010;DHT22;15334;49.494;8.410;2022-07-10T03:34:49;16.60;99.90
28010;DHT22;15334;49.494;8.410;2022-07-10T03:37:17;16.60;99.90
28010;DHT22;15334;49.494;8.410;2022-07-10T03:39:46;16.50;99.90
28010;DHT22;15334;49.494;8.410;2022-07-10T03:42:14;16.40;99.90
28010;DHT22;15334;49.494;8.410;2022-07-10T03:44:45;16.30;99.90
28010;DHT22;15334;49.494;8.410;2022-07-10T03:47:13;16.10;99.90
28010;DHT22;15334;49.494;8.410;2022-07-10T03:49:41;16.00;99.90
28010;DHT22;15334;49.494;8.410;2022-07-10T03:52:09;16.00;99.90
28010;DHT22;15334;49.494;8.410;2022-07-10T03:54:37;15.90;99.90
28010;DHT22;15334;49.494;8.410;2022-07-10T03:57:07;15.80;99.90
28010;DHT22;15334;49.494;8.410;2022-07-10T03:59:52;15.70;99.90
28010;DHT22;15334;49.494;8.410;2022-07-10T04:02:20;15.80;99.90
28010;DHT22;15334;49.494;8.410;2022-07-10T04:04:48;15.90;99.90
28010;DHT22;15334;49.494;8.410;2022-07-10T04:07:16;15.90;99.90
28010;DHT22;15334;49.494;8.410;2022-07-10T04:09:44;15.90;99.90
28010;DHT22;15334;49.494;8.410;2022-07-10T04:12:14;16.00;99.90
28010;DHT22;15334;49.494;8.410;2022-07-10T04:14:44;16.10;99.90
28010;DHT22;15334;49.494;8.410;2022-07-10T04:17:18;16.00;99.90
28010;DHT22;15334;49.494;8.410;2022-07-10T04:19:46;15.90;99.90
28010;DHT22;15334;49.494;8.410;2022-07-10T04:22:14;15.80;99.90
28010;DHT22;15334;49.494;8.410;2022-07-10T04:24:42;15.80;99.90
28010;DHT22;15334;49.494;8.410;2022-07-10T04:27:10;15.70;99.90
28010;DHT22;15334;49.494;8.410;2022-07-10T04:29:39;15.70;99.90
28010;DHT22;15334;49.494;8.410;2022-07-10T04:32:08;15.80;99.90
28010;DHT22;15334;49.494;8.410;2022-07-10T04:34:38;15.80;99.90
28010;DHT22;15334;49.494;8.410;2022-07-10T04:37:06;15.90;99.90
28010;DHT22;15334;49.494;8.410;2022-07-10T04:39:35;15.90;99.90
28010;DHT22;15334;49.494;8.410;2022-07-10T04:42:05;16.00;99.90
28010;DHT22;15334;49.494;8.410;2022-07-10T04:44:33;16.10;99.90
28010;DHT22;15334;49.494;8.410;2022-07-10T04:47:03;16.20;99.90
28010;DHT22;15334;49.494;8.410;2022-07-10T04:49:33;16.30;99.90
28010;DHT22;15334;49.494;8.410;2022-07-10T04:52:01;16.40;99.90
28010;DHT22;15334;49.494;8.410;2022-07-10T04:54:29;16.60;99.90
28010;DHT22;15334;49.494;8.410;2022-07-10T04:56:57;16.70;99.90
28010;DHT22;15334;49.494;8.410;2022-07-10T04:59:26;16.80;99.90
28010;DHT22;15334;49.494;8.410;2022-07-10T05:01:54;16.70;99.90
28010;DHT22;15334;49.494;8.410;2022-07-10T05:04:24;16.50;99.90
28010;DHT22;15334;49.494;8.410;2022-07-10T05:06:52;16.10;99.90
28010;DHT22;15334;49.494;8.410;2022-07-10T05:09:20;15.80;99.90
28010;DHT22;15334;49.494;8.410;2022-07-10T05:11:48;15.90;99.90
28010;DHT22;15334;49.494;8.410;2022-07-10T05:14:16;15.90;99.90
28010;DHT22;15334;49.494;8.410;2022-07-10T05:16:44;15.90;99.90
28010;DHT22;15334;49.494;8.410;2022-07-10T05:19:12;15.90;99.90
28010;DHT22;15334;49.494;8.410;2022-07-10T05:21:42;16.00;99.90
28010;DHT22;15334;49.494;8.410;2022-07-10T05:24:10;16.00;99.90
28010;DHT22;15334;49.494;8.410;2022-07-10T05:26:38;15.90;99.90
28010;DHT22;15334;49.494;8.410;2022-07-10T05:29:06;15.70;99.90
28010;DHT22;15334;49.494;8.410;2022-07-10T05:31:34;15.80;99.90
28010;DHT22;15334;49.494;8.410;2022-07-10T05:34:02;15.80;99.90
28010;DHT22;15334;49.494;8.410;2022-07-10T05:36:30;15.90;99.90
28010;DHT22;15334;49.494;8.410;2022-07-10T05:38:59;16.20;99.90
28010;DHT22;15334;49.494;8.410;2022-07-10T05:41:28;16.40;99.90
28010;DHT22;15334;49.494;8.410;2022-07-10T05:43:56;16.50;99.90
28010;DHT22;15334;49.494;8.410;2022-07-10T05:46:24;16.50;99.90
28010;DHT22;15334;49.494;8.410;2022-07-10T05:48:52;16.20;99.90
28010;DHT22;15334;49.494;8.410;2022-07-10T05:51:20;16.40;99.90
28010;DHT22;15334;49.494;8.410;2022-07-10T05:53:57;16.50;99.90
28010;DHT22;15334;49.494;8.410;2022-07-10T05:56:27;16.40;99.90
28010;DHT22;15334;49.494;8.410;2022-07-10T05:58:56;16.20;99.90
28010;DHT22;15334;49.494;8.410;2022-07-10T06:01:24;16.10;99.90
28010;DHT22;15334;49.494;8.410;2022-07-10T06:03:53;15.90;99.90
28010;DHT22;15334;49.494;8.410;2022-07-10T06:06:22;16.00;99.90
28010;DHT22;15334;49.494;8.410;2022-07-10T06:08:53;16.00;99.90
28010;DHT22;15334;49.494;8.410;2022-07-10T06:11:21;15.80;99.90
28010;DHT22;15334;49.494;8.410;2022-07-10T06:13:51;15.80;99.90
28010;DHT22;15334;49.494;8.410;2022-07-10T06:16:19;15.70;99.90
28010;DHT22;15334;49.494;8.410;2022-07-10T06:18:47;15.70;99.90
28010;DHT22;15334;49.494;8.410;2022-07-10T06:21:15;15.80;99.90
28010;DHT22;15334;49.494;8.410;2022-07-10T06:23:48;16.00;99.90
28010;DHT22;15334;49.494;8.410;2022-07-10T06:26:16;16.10;99.90
28010;DHT22;15334;49.494;8.410;2022-07-10T06:28:44;15.90;99.90
28010;DHT22;15334;49.494;8.410;2022-07-10T06:31:13;16.00;99.90
28010;DHT22;15334;49.494;8.410;2022-07-10T06:33:45;16.00;99.90
28010;DHT22;15334;49.494;8.410;2022-07-10T06:36:13;16.10;99.90
28010;DHT22;15334;49.494;8.410;2022-07-10T06:38:41;16.20;99.90
28010;DHT22;15334;49.494;8.410;2022-07-10T06:41:09;16.30;99.90
28010;DHT22;15334;49.494;8.410;2022-07-10T06:43:37;16.50;99.90
28010;DHT22;15334;49.494;8.410;2022-07-10T06:46:06;16.60;99.90
28010;DHT22;15334;49.494;8.410;2022-07-10T06:48:35;16.90;99.90
28010;DHT22;15334;49.494;8.410;2022-07-10T06:51:06;17.00;99.90
28010;DHT22;15334;49.494;8.410;2022-07-10T06:53:43;17.20;99.90
28010;DHT22;15334;49.494;8.410;2022-07-10T06:56:11;17.20;99.90
28010;DHT22;15334;49.494;8.410;2022-07-10T06:58:40;17.20;99.90
28010;DHT22;15334;49.494;8.410;2022-07-10T07:01:08;17.20;99.90
28010;DHT22;15334;49.494;8.410;2022-07-10T07:03:38;17.30;99.90
28010;DHT22;15334;49.494;8.410;2022-07-10T07:06:06;17.50;99.90
28010;DHT22;15334;49.494;8.410;2022-07-10T07:08:34;17.50;99.90
28010;DHT22;15334;49.494;8.410;2022-07-10T07:11:04;17.60;99.90
28010;DHT22;15334;49.494;8.410;2022-07-10T07:13:33;17.60;99.90
28010;DHT22;15334;49.494;8.410;2022-07-10T07:16:07;17.40;99.90
28010;DHT22;15334;49.494;8.410;2022-07-10T07:18:38;17.10;99.90
28010;DHT22;15334;49.494;8.410;2022-07-10T07:21:14;17.00;99.90
28010;DHT22;15334;49.494;8.410;2022-07-10T07:24:00;17.00;99.90
28010;DHT22;15334;49.494;8.410;2022-07-10T07:26:29;17.20;99.90
28010;DHT22;15334;49.494;8.410;2022-07-10T07:28:57;17.40;99.90
28010;DHT22;15334;49.494;8.410;2022-07-10T07:31:25;17.50;99.90
28010;DHT22;15334;49.494;8.410;2022-07-10T07:33:54;17.70;99.90
28010;DHT22;15334;49.494;8.410;2022-07-10T07:36:22;18.00;99.90
28010;DHT22;15334;49.494;8.410;2022-07-10T07:38:50;18.20;99.90
28010;DHT22;15334;49.494;8.410;2022-07-10T07:41:20;18.20;99.90
28010;DHT22;15334;49.494;8.410;2022-07-10T07:43:49;18.00;99.90
28010;DHT22;15334;49.494;8.410;2022-07-10T07:46:17;18.20;99.90
28010;DHT22;15334;49.494;8.410;2022-07-10T07:48:47;18.10;99.90
28010;DHT22;15334;49.494;8.410;2022-07-10T07:51:18;18.00;99.90
28010;DHT22;15334;49.494;8.410;2022-07-10T07:53:46;17.70;99.90
28010;DHT22;15334;49.494;8.410;2022-07-10T07:56:16;17.50;99.90
28010;DHT22;15334;49.494;8.410;2022-07-10T07:58:44;17.30;99.90
28010;DHT22;15334;49.494;8.410;2022-07-10T08:01:12;17.40;99.90
28010;DHT22;15334;49.494;8.410;2022-07-10T08:03:45;17.40;99.90
28010;DHT22;15334;49.494;8.410;2022-07-10T08:06:35;17.30;99.90
28010;DHT22;15334;49.494;8.410;2022-07-10T08:09:03;17.30;99.90
28010;DHT22;15334;49.494;8.410;2022-07-10T08:11:31;17.40;99.90
28010;DHT22;15334;49.494;8.410;2022-07-10T08:13:59;17.60;99.90
28010;DHT22;15334;49.494;8.410;2022-07-10T08:16:27;17.80;99.90
28010;DHT22;15334;49.494;8.410;2022-07-10T08:18:55;17.80;99.90
28010;DHT22;15334;49.494;8.410;2022-07-10T08:21:23;17.90;99.90
28010;DHT22;15334;49.494;8.410;2022-07-10T08:23:55;18.10;99.90
28010;DHT22;15334;49.494;8.410;2022-07-10T08:26:23;18.00;99.90
28010;DHT22;15334;49.494;8.410;2022-07-10T08:28:51;18.10;99.90
28010;DHT22;15334;49.494;8.410;2022-07-10T08:31:19;18.20;99.90
28010;DHT22;15334;49.494;8.410;2022-07-10T08:33:48;18.20;99.90
28010;DHT22;15334;49.494;8.410;2022-07-10T08:36:17;18.20;99.90
28010;DHT22;15334;49.494;8.410;2022-07-10T08:39:07;18.30;99.90
28010;DHT22;15334;49.494;8.410;2022-07-10T08:41:36;18.20;99.90
28010;DHT22;15334;49.494;8.410;2022-07-10T08:44:04;18.30;99.90
28010;DHT22;15334;49.494;8.410;2022-07-10T08:46:33;18.30;99.90
28010;DHT22;15334;49.494;8.410;2022-07-10T08:49:07;18.40;99.90
28010;DHT22;15334;49.494;8.410;2022-07-10T08:51:41;18.50;99.90
28010;DHT22;15334;49.494;8.410;2022-07-10T08:54:13;18.50;99.50
28010;DHT22;15334;49.494;8.410;2022-07-10T08:56:48;18.50;99.50
28010;DHT22;15334;49.494;8.410;2022-07-10T08:59:18;18.60;99.50
28010;DHT22;15334;49.494;8.410;2022-07-10T09:01:48;18.70;99.50
28010;DHT22;15334;49.494;8.410;2022-07-10T09:04:18;18.80;99.50
28010;DHT22;15334;49.494;8.410;2022-07-10T09:06:46;18.80;98.70
28010;DHT22;15334;49.494;8.410;2022-07-10T09:09:16;18.70;98.70
28010;DHT22;15334;49.494;8.410;2022-07-10T09:11:44;18.60;98.30
28010;DHT22;15334;49.494;8.410;2022-07-10T09:14:15;18.30;98.10
28010;DHT22;15334;49.494;8.410;2022-07-10T09:17:02;18.30;98.20
28010;DHT22;15334;49.494;8.410;2022-07-10T09:19:30;18.50;98.10
28010;DHT22;15334;49.494;8.410;2022-07-10T09:22:04;18.60;97.60
28010;DHT22;15334;49.494;8.410;2022-07-10T09:24:37;18.60;97.50
28010;DHT22;15334;49.494;8.410;2022-07-10T09:27:09;18.70;97.50
28010;DHT22;15334;49.494;8.410;2022-07-10T09:29:48;18.90;97.10
28010;DHT22;15334;49.494;8.410;2022-07-10T09:32:18;19.00;97.10
28010;DHT22;15334;49.494;8.410;2022-07-10T09:34:48;19.30;96.70
28010;DHT22;15334;49.494;8.410;2022-07-10T09:37:39;19.50;96.60
28010;DHT22;15334;49.494;8.410;2022-07-10T09:40:09;19.30;96.60
28010;DHT22;15334;49.494;8.410;2022-07-10T09:42:38;19.30;96.60
28010;DHT22;15334;49.494;8.410;2022-07-10T09:45:18;19.20;96.70
28010;DHT22;15334;49.494;8.410;2022-07-10T09:47:54;19.20;96.90
28010;DHT22;15334;49.494;8.410;2022-07-10T09:50:25;18.90;97.20
28010;DHT22;15334;49.494;8.410;2022-07-10T09:52:55;18.80;97.70
28010;DHT22;15334;49.494;8.410;2022-07-10T09:55:28;18.90;97.60
28010;DHT22;15334;49.494;8.410;2022-07-10T09:57:58;19.10;96.70
28010;DHT22;15334;49.494;8.410;2022-07-10T10:00:28;19.20;96.90
28010;DHT22;15334;49.494;8.410;2022-07-10T10:02:58;19.30;96.50
28010;DHT22;15334;49.494;8.410;2022-07-10T10:05:34;19.50;96.70
28010;DHT22;15334;49.494;8.410;2022-07-10T10:08:09;19.50;95.80
28010;DHT22;15334;49.494;8.410;2022-07-10T10:10:43;19.50;95.80
28010;DHT22;15334;49.494;8.410;2022-07-10T10:13:15;19.50;95.20
28010;DHT22;15334;49.494;8.410;2022-07-10T10:15:46;19.70;95.20
28010;DHT22;15334;49.494;8.410;2022-07-10T10:18:17;19.50;94.80
28010;DHT22;15334;49.494;8.410;2022-07-10T10:20:48;19.60;95.10
28010;DHT22;15334;49.494;8.410;2022-07-10T10:23:17;19.70;95.40
28010;DHT22;15334;49.494;8.410;2022-07-10T10:25:52;19.90;94.80
28010;DHT22;15334;49.494;8.410;2022-07-10T10:28:21;19.90;94.50
28010;DHT22;15334;49.494;8.410;2022-07-10T10:30:52;19.90;94.40
28010;DHT22;15334;49.494;8.410;2022-07-10T10:33:41;20.10;94.50
28010;DHT22;15334;49.494;8.410;2022-07-10T10:36:12;20.10;94.20
28010;DHT22;15334;49.494;8.410;2022-07-10T10:39:00;20.20;93.90
28010;DHT22;15334;49.494;8.410;2022-07-10T10:41:37;20.20;93.60
28010;DHT22;15334;49.494;8.410;2022-07-10T10:44:21;20.20;93.50
28010;DHT22;15334;49.494;8.410;2022-07-10T10:46:57;20.20;93.80
28010;DHT22;15334;49.494;8.410;2022-07-10T10:49:49;20.30;93.90
28010;DHT22;15334;49.494;8.410;2022-07-10T10:52:20;20.40;93.60
28010;DHT22;15334;49.494;8.410;2022-07-10T10:55:07;20.20;93.80
28010;DHT22;15334;49.494;8.410;2022-07-10T10:57:41;20.20;93.70
28010;DHT22;15334;49.494;8.410;2022-07-10T11:00:31;20.40;93.70
28010;DHT22;15334;49.494;8.410;2022-07-10T11:03:21;20.50;93.60
28010;DHT22;15334;49.494;8.410;2022-07-10T11:05:51;20.70;93.20
28010;DHT22;15334;49.494;8.410;2022-07-10T11:08:39;20.80;93.00
28010;DHT22;15334;49.494;8.410;2022-07-10T11:11:37;21.20;93.00
28010;DHT22;15334;49.494;8.410;2022-07-10T11:14:08;21.50;92.10
28010;DHT22;15334;49.494;8.410;2022-07-10T11:16:46;21.60;91.90
28010;DHT22;15334;49.494;8.410;2022-07-10T11:19:22;21.60;91.80
28010;DHT22;15334;49.494;8.410;2022-07-10T11:21:59;21.50;92.10
28010;DHT22;15334;49.494;8.410;2022-07-10T11:24:40;21.30;91.80
28010;DHT22;15334;49.494;8.410;2022-07-10T11:27:27;21.40;92.00
28010;DHT22;15334;49.494;8.410;2022-07-10T11:29:59;22.30;91.10
28010;DHT22;15334;49.494;8.410;2022-07-10T11:32:28;23.60;88.60
28010;DHT22;15334;49.494;8.410;2022-07-10T11:34:58;24.30;85.90
28010;DHT22;15334;49.494;8.410;2022-07-10T11:37:26;24.40;84.40
28010;DHT22;15334;49.494;8.410;2022-07-10T11:40:15;24.10;85.30
28010;DHT22;15334;49.494;8.410;2022-07-10T11:42:51;24.40;84.00
28010;DHT22;15334;49.494;8.410;2022-07-10T11:45:26;24.70;81.90
28010;DHT22;15334;49.494;8.410;2022-07-10T11:47:54;24.70;81.80
28010;DHT22;15334;49.494;8.410;2022-07-10T11:50:22;24.90;81.40
28010;DHT22;15334;49.494;8.410;2022-07-10T11:52:51;25.20;80.70
28010;DHT22;15334;49.494;8.410;2022-07-10T11:55:22;25.30;79.30
28010;DHT22;15334;49.494;8.410;2022-07-10T11:57:52;26.10;78.20
28010;DHT22;15334;49.494;8.410;2022-07-10T12:00:26;26.20;77.10
28010;DHT22;15334;49.494;8.410;2022-07-10T12:02:55;27.00;75.70
28010;DHT22;15334;49.494;8.410;2022-07-10T12:05:35;26.90;74.40
28010;DHT22;15334;49.494;8.410;2022-07-10T12:08:04;26.80;73.50
28010;DHT22;15334;49.494;8.410;2022-07-10T12:10:33;27.50;73.10
28010;DHT22;15334;49.494;8.410;2022-07-10T12:13:06;27.80;71.70
28010;DHT22;15334;49.494;8.410;2022-07-10T12:15:38;28.00;70.50
28010;DHT22;15334;49.494;8.410;2022-07-10T12:18:08;27.40;70.30
28010;DHT22;15334;49.494;8.410;2022-07-10T12:20:37;27.80;70.50
28010;DHT22;15334;49.494;8.410;2022-07-10T12:23:09;28.20;69.00
28010;DHT22;15334;49.494;8.410;2022-07-10T12:25:37;27.90;69.30
28010;DHT22;15334;49.494;8.410;2022-07-10T12:28:05;28.40;69.30
28010;DHT22;15334;49.494;8.410;2022-07-10T12:30:40;28.50;67.50
28010;DHT22;15334;49.494;8.410;2022-07-10T12:33:09;28.20;68.60
28010;DHT22;15334;49.494;8.410;2022-07-10T12:35:50;28.70;67.70
28010;DHT22;15334;49.494;8.410;2022-07-10T12:38:19;28.80;66.30
28010;DHT22;15334;49.494;8.410;2022-07-10T12:40:47;28.90;65.60
28010;DHT22;15334;49.494;8.410;2022-07-10T12:43:26;29.80;64.80
28010;DHT22;15334;49.494;8.410;2022-07-10T12:46:11;30.90;63.20
28010;DHT22;15334;49.494;8.410;2022-07-10T12:48:43;28.70;64.50
28010;DHT22;15334;49.494;8.410;2022-07-10T12:51:26;27.80;66.70
28010;DHT22;15334;49.494;8.410;2022-07-10T12:54:39;27.20;68.10
28010;DHT22;15334;49.494;8.410;2022-07-10T12:57:07;26.80;68.70
28010;DHT22;15334;49.494;8.410;2022-07-10T12:59:37;25.70;70.50
28010;DHT22;15334;49.494;8.410;2022-07-10T13:02:18;25.30;71.20
28010;DHT22;15334;49.494;8.410;2022-07-10T13:04:53;24.90;73.40
28010;DHT22;15334;49.494;8.410;2022-07-10T13:07:29;24.40;74.50
28010;DHT22;15334;49.494;8.410;2022-07-10T13:09:59;24.00;75.30
28010;DHT22;15334;49.494;8.410;2022-07-10T13:12:31;23.90;75.90
28010;DHT22;15334;49.494;8.410;2022-07-10T13:14:59;23.90;75.50
28010;DHT22;15334;49.494;8.410;2022-07-10T13:17:29;23.60;76.50
28010;DHT22;15334;49.494;8.410;2022-07-10T13:19:57;23.60;77.30
28010;DHT22;15334;49.494;8.410;2022-07-10T13:22:25;23.40;77.00
28010;DHT22;15334;49.494;8.410;2022-07-10T13:24:53;23.30;77.90
28010;DHT22;15334;49.494;8.410;2022-07-10T13:27:21;23.30;78.10
28010;DHT22;15334;49.494;8.410;2022-07-10T13:29:50;23.40;77.60
28010;DHT22;15334;49.494;8.410;2022-07-10T13:32:18;23.20;77.70
28010;DHT22;15334;49.494;8.410;2022-07-10T13:34:48;23.30;77.80
28010;DHT22;15334;49.494;8.410;2022-07-10T13:37:17;23.50;77.30
28010;DHT22;15334;49.494;8.410;2022-07-10T13:39:45;24.60;76.20
28010;DHT22;15334;49.494;8.410;2022-07-10T13:42:16;25.60;73.20
28010;DHT22;15334;49.494;8.410;2022-07-10T13:44:44;25.40;73.40
28010;DHT22;15334;49.494;8.410;2022-07-10T13:47:12;24.80;75.00
28010;DHT22;15334;49.494;8.410;2022-07-10T13:49:43;24.40;75.00
28010;DHT22;15334;49.494;8.410;2022-07-10T13:52:13;24.40;75.30
28010;DHT22;15334;49.494;8.410;2022-07-10T13:54:43;24.60;75.20
28010;DHT22;15334;49.494;8.410;2022-07-10T13:57:11;24.60;74.90
28010;DHT22;15334;49.494;8.410;2022-07-10T13:59:39;25.10;74.90
28010;DHT22;15334;49.494;8.410;2022-07-10T14:02:07;25.10;74.90
28010;DHT22;15334;49.494;8.410;2022-07-10T14:04:42;25.00;75.60
28010;DHT22;15334;49.494;8.410;2022-07-10T14:07:10;25.60;74.10
28010;DHT22;15334;49.494;8.410;2022-07-10T14:09:40;25.80;72.50
28010;DHT22;15334;49.494;8.410;2022-07-10T14:12:08;25.40;73.20
28010;DHT22;15334;49.494;8.410;2022-07-10T14:14:39;25.60;74.30
28010;DHT22;15334;49.494;8.410;2022-07-10T14:17:07;25.30;74.30
28010;DHT22;15334;49.494;8.410;2022-07-10T14:19:35;25.40;73.20
28010;DHT22;15334;49.494;8.410;2022-07-10T14:22:03;24.80;74.10
28010;DHT22;15334;49.494;8.410;2022-07-10T14:24:35;24.20;75.90
28010;DHT22;15334;49.494;8.410;2022-07-10T14:27:07;24.10;76.60
28010;DHT22;15334;49.494;8.410;2022-07-10T14:29:35;24.00;77.10
28010;DHT22;15334;49.494;8.410;2022-07-10T14:32:04;23.90;77.90
28010;DHT22;15334;49.494;8.410;2022-07-10T14:34:32;23.70;78.10
28010;DHT22;15334;49.494;8.410;2022-07-10T14:37:01;23.50;78.30
28010;DHT22;15334;49.494;8.410;2022-07-10T14:39:29;23.70;78.80
28010;DHT22;15334;49.494;8.410;2022-07-10T14:41:57;23.30;79.00
28010;DHT22;15334;49.494;8.410;2022-07-10T14:44:27;23.00;80.30
28010;DHT22;15334;49.494;8.410;2022-07-10T14:46:55;22.90;80.50
28010;DHT22;15334;49.494;8.410;2022-07-10T14:49:27;22.90;81.00
28010;DHT22;15334;49.494;8.410;2022-07-10T14:51:55;23.00;81.50
28010;DHT22;15334;49.494;8.410;2022-07-10T14:54:23;23.00;81.00
28010;DHT22;15334;49.494;8.410;2022-07-10T14:56:54;22.90;81.70
28010;DHT22;15334;49.494;8.410;2022-07-10T14:59:31;23.00;81.90
28010;DHT22;15334;49.494;8.410;2022-07-10T15:01:59;23.00;81.20
28010;DHT22;15334;49.494;8.410;2022-07-10T15:04:27;22.90;80.70
28010;DHT22;15334;49.494;8.410;2022-07-10T15:06:55;22.70;81.30
28010;DHT22;15334;49.494;8.410;2022-07-10T15:09:23;22.80;81.40
28010;DHT22;15334;49.494;8.410;2022-07-10T15:11:56;22.90;81.70
28010;DHT22;15334;49.494;8.410;2022-07-10T15:14:25;23.10;82.10
28010;DHT22;15334;49.494;8.410;2022-07-10T15:16:55;23.10;80.20
28010;DHT22;15334;49.494;8.410;2022-07-10T15:19:23;23.00;80.10
28010;DHT22;15334;49.494;8.410;2022-07-10T15:21:52;23.00;80.70
28010;DHT22;15334;49.494;8.410;2022-07-10T15:24:20;22.90;81.00
28010;DHT22;15334;49.494;8.410;2022-07-10T15:26:48;22.90;81.50
28010;DHT22;15334;49.494;8.410;2022-07-10T15:29:17;23.00;81.00
28010;DHT22;15334;49.494;8.410;2022-07-10T15:31:50;23.00;81.40
28010;DHT22;15334;49.494;8.410;2022-07-10T15:34:26;23.10;81.80
28010;DHT22;15334;49.494;8.410;2022-07-10T15:36:54;22.90;81.70
28010;DHT22;15334;49.494;8.410;2022-07-10T15:39:22;22.80;81.70
28010;DHT22;15334;49.494;8.410;2022-07-10T15:41:51;22.80;81.80
28010;DHT22;15334;49.494;8.410;2022-07-10T15:44:19;22.70;82.80
28010;DHT22;15334;49.494;8.410;2022-07-10T15:46:47;22.70;83.50
28010;DHT22;15334;49.494;8.410;2022-07-10T15:49:15;22.60;83.40
28010;DHT22;15334;49.494;8.410;2022-07-10T15:51:44;22.60;83.90